Latest Weather Observations for Tasman Island

IDT60801

Issued at 5:01 pm EST Friday 28 August 2015 (issued every 30 minutes, with the page automatically refreshed every 10 minutes)

About weather observations | Map of weather stations | Latest weather observations for TAS | Other Formats
Station Details ID: 094155 Name: TASMAN ISLAND Lat: -43.24 Lon: 148.00 Height: 240.0 m
Data from the previous 72 hours. | See also: Recent months at Tasman Island
Date/Time
EST
Temp
°C
App
Temp
°C
Dew
Point
Rel
Hum
%
Delta-T
°C
Wind Press
QNH
hPa
Press
MSL
hPa
Rain
since 9 am
mm
Dir
 
Spd
km/h
Gust
km/h
Spd
kts
Gust
kts
28/05:00pm 3.8 -7.3 0.1 77 1.4 SW 48 74 26 40 1020.6 1021.0 0.4
28/04:30pm 4.2 -6.1 0.0 74 1.6 SSW 44 83 24 45 1020.7 1021.1 0.4
28/04:00pm 4.8 -6.0 -0.2 70 1.9 SSW 46 76 25 41 1021.3 1021.7 0.4
28/03:30pm 4.1 -6.0 1.6 84 1.0 SSW 44 69 24 37 1021.7 1022.1 0.4
28/03:00pm 2.9 -7.1 0.8 86 0.8 SSW 43 76 23 41 1021.8 1022.2 0.4
28/02:30pm 4.8 -5.4 -0.4 69 2.0 SSW 43 61 23 33 1022.3 1022.7 0.0
28/02:11pm 4.3 -7.7 1.5 82 1.1 SSW 54 76 29 41 1022.3 1022.7 0.0
28/02:08pm 4.6 -6.7 0.9 77 1.5 SSW 50 76 27 41 1022.1 1022.5 0.0
28/02:02pm 5.8 -4.0 -0.3 65 2.4 SSW 41 61 22 33 1022.3 1022.7 0.0
28/02:00pm 6.1 -4.0 0.2 66 2.3 SSW 43 61 23 33 1022.5 1022.9 0.0
28/01:40pm 5.7 -3.1 1.4 74 1.7 SSW 37 57 20 31 1022.8 1023.2 0.0
28/01:30pm 4.8 -4.1 0.8 75 1.6 SSW 37 50 20 27 1022.9 1023.3 0.0
28/01:00pm 5.0 -3.4 1.3 77 1.5 S 35 59 19 32 1023.4 1023.7 0.0
28/12:31pm 5.6 -4.7 0.2 68 2.1 SSW 44 67 24 36 1023.6 1023.9 0.0
28/12:30pm 5.8 -4.5 0.0 66 2.3 SSW 44 61 24 33 1023.5 1023.8 0.0
28/12:06pm 5.8 -3.6 0.2 67 2.2 SSW 39 57 21 31 1023.9 1024.2 0.0
28/12:00pm 6.3 -3.5 -0.2 63 2.5 SSW 41 59 22 32 1024.1 1024.5 0.0
28/11:47am 6.5 -2.5 0.4 65 2.4 SSW 37 59 20 32 1024.2 1024.6 0.0
28/11:30am 6.2 -2.8 -0.1 64 2.5 SSW 37 54 20 29 1024.4 1024.8 0.0
28/11:03am 7.3 -0.3 0.7 63 2.7 SSW 30 54 16 29 1024.4 1024.8 0.0
28/11:00am 7.1 -1.0 -0.4 59 2.9 SSW 32 46 17 25 1024.5 1024.9 0.0
28/10:30am 6.1 -1.7 -1.1 60 2.7 S 30 54 16 29 1024.5 1024.9 0.0
28/10:05am 5.5 -1.7 0.7 71 1.9 S 28 46 15 25 1024.6 1025.0 0.0
28/10:00am 5.6 -1.6 0.8 71 1.9 SSW 28 43 15 23 1024.6 1025.0 0.0
28/09:30am 5.7 -2.2 0.9 71 1.9 S 32 52 17 28 1024.6 1025.0 0.0
28/09:06am 5.2 -1.9 1.1 75 1.6 SSW 28 48 15 26 1024.5 1024.9 0.0
28/09:00am 5.5 -1.5 2.0 78 1.4 SSW 28 43 15 23 1024.7 1025.1 0.6
28/08:33am 4.2 -2.8 1.7 84 1.0 S 28 57 15 31 1024.4 1024.8 0.6
28/08:30am 4.3 -2.0 1.7 83 1.0 SSW 24 48 13 26 1024.4 1024.8 0.6
28/08:00am 4.7 -4.4 2.1 83 1.0 SSW 39 61 21 33 1024.4 1024.8 0.6
28/07:39am 4.8 -2.5 -0.2 70 1.9 SSW 28 46 15 25 1024.3 1024.7 0.6
28/07:30am 4.8 -2.3 1.1 77 1.5 SSW 28 43 15 23 1024.3 1024.7 0.6
28/07:00am 3.8 -3.6 1.8 87 0.8 SSW 30 50 16 27 1024.1 1024.5 0.6
28/06:32am 3.5 -4.0 1.2 85 0.9 SSW 30 54 16 29 1023.9 1024.2 0.6
28/06:30am 3.5 -3.2 1.4 86 0.8 S 26 43 14 23 1023.9 1024.2 0.6
28/06:05am 5.0 -3.0 0.4 72 1.8 SSW 32 50 17 27 1023.6 1023.9 0.6
28/06:00am 4.8 -2.9 -0.2 70 1.9 SSW 30 46 16 25 1023.6 1023.9 0.6
28/05:34am 4.9 -3.7 0.3 72 1.8 SSW 35 56 19 30 1023.3 1023.6 0.6
28/05:30am 4.9 -3.6 0.7 74 1.6 SSW 35 52 19 28 1023.3 1023.6 0.6
28/05:00am 4.9 -4.2 -0.9 66 2.2 SSW 37 56 20 30 1023.0 1023.4 0.6
28/04:46am 5.0 -4.4 -0.2 69 2.0 SSW 39 59 21 32 1022.9 1023.3 0.6
28/04:30am 5.4 -3.8 1.1 74 1.7 SSW 39 56 21 30 1022.8 1023.2 0.6
28/04:05am 5.4 -2.6 0.2 69 2.0 SSW 32 50 17 27 1022.7 1023.1 0.4
28/04:00am 5.3 -2.0 0.3 70 1.9 SSW 28 46 15 25 1022.6 1023.0 0.4
28/03:32am 5.5 -1.5 2.2 79 1.4 S 28 48 15 26 1022.5 1022.9 0.4
28/03:30am 5.3 -1.3 2.0 79 1.3 S 26 48 14 26 1022.5 1022.9 0.4
28/03:05am 5.3 -1.6 2.5 82 1.2 S 28 54 15 29 1022.5 1022.9 0.4
28/03:00am 5.2 -1.7 2.6 83 1.1 S 28 46 15 25 1022.6 1023.0 0.4
28/02:46am 5.2 -1.5 3.7 90 0.6 S 28 48 15 26 1022.4 1022.8 0.4
28/02:30am 5.6 -0.6 4.4 92 0.5 S 26 50 14 27 1022.5 1022.9 0.2
28/02:00am 5.6 -1.0 4.2 91 0.6 S 28 52 15 28 1022.2 1022.6 0.2
28/01:30am 6.0 -0.8 5.1 94 0.4 S 30 50 16 27 1022.0 1022.4 0.2
28/01:00am 6.0 -0.4 5.3 95 0.3 S 28 52 15 28 1021.8 1022.2 0.2
28/12:30am 6.5 -0.2 5.5 93 0.4 S 30 46 16 25 1021.8 1022.2 0.2
28/12:01am 6.6 0.4 6.0 96 0.3 S 28 46 15 25 1021.7 1022.1 0.2
28/12:00am 6.6 0.0 6.0 96 0.3 S 30 46 16 25 1021.7 1022.1 0.2
 
Date/Time
EST
Temp
°C
App
Temp
°C
Dew
Point
Rel
Hum
%
Delta-T
°C
Wind Press
QNH
hPa
Press
MSL
hPa
Rain
since 9 am
mm
Dir
 
Spd
km/h
Gust
km/h
Spd
kts
Gust
kts
27/11:40pm 7.5 2.2 6.6 94 0.4 SW 24 50 13 27 1021.5 1021.9 0.0
27/11:30pm 7.7 4.0 6.5 92 0.6 WSW 15 39 8 21 1021.6 1022.0 0.0
27/11:00pm 7.5 3.4 6.0 90 0.7 SW 17 37 9 20 1021.8 1022.2 0.0
27/10:30pm 7.8 3.3 6.1 89 0.8 SW 19 35 10 19 1022.0 1022.4 0.0
27/10:00pm 8.0 3.9 6.0 87 0.9 SW 17 44 9 24 1021.9 1022.3 0.0
27/09:30pm 7.9 4.0 5.5 85 1.1 SW 15 32 8 17 1022.3 1022.7 0.0
27/09:00pm 8.2 2.7 5.7 84 1.1 SW 24 44 13 24 1022.3 1022.7 0.0
27/08:30pm 8.4 4.2 5.7 83 1.2 SW 17 30 9 16 1022.2 1022.6 0.0
27/08:00pm 8.4 2.8 5.5 82 1.3 SW 24 35 13 19 1022.2 1022.6 0.0
27/07:30pm 8.3 2.7 5.2 81 1.4 SW 24 35 13 19 1022.1 1022.5 0.0
27/07:00pm 8.3 3.4 4.9 79 1.5 SW 20 32 11 17 1021.9 1022.3 0.0
27/06:30pm 8.1 3.7 5.0 81 1.4 SSW 17 26 9 14 1021.7 1022.1 0.0
27/06:00pm 8.2 4.0 5.5 83 1.2 SSW 17 24 9 13 1021.7 1022.1 0.0
27/05:30pm 7.9 4.1 6.0 88 0.9 SSW 15 22 8 12 1021.6 1022.0 0.0
27/05:00pm 8.1 4.3 5.6 84 1.1 SSW 15 24 8 13 1021.5 1021.9 0.0
27/04:30pm 8.2 4.8 5.8 85 1.1 SW 13 20 7 11 1021.4 1021.8 0.0
27/04:00pm 8.4 4.5 6.9 90 0.7 SW 17 22 9 12 1021.4 1021.8 0.0
27/03:30pm 8.7 5.6 7.2 90 0.7 SW 13 20 7 11 1021.3 1021.7 0.0
27/03:00pm 9.0 5.3 7.9 93 0.5 SW 17 20 9 11 1021.4 1021.8 0.0
27/02:30pm 8.4 6.1 7.3 93 0.5 SW 9 17 5 9 1021.4 1021.8 0.0
27/02:00pm 8.4 6.1 7.3 93 0.5 WSW 9 15 5 8 1021.5 1021.9 0.0
27/01:30pm 8.8 6.2 7.6 92 0.6 WSW 11 17 6 9 1021.7 1022.1 0.0
27/01:00pm 8.9 6.3 7.7 92 0.6 WSW 11 15 6 8 1021.9 1022.3 0.0
27/12:30pm 8.8 6.0 7.1 89 0.8 WSW 11 15 6 8 1022.3 1022.7 0.0
27/12:00pm 9.3 7.1 6.2 81 1.4 WSW 7 11 4 6 1022.5 1022.9 0.0
27/11:30am 9.1 7.2 7.5 90 0.8 WSW 7 11 4 6 1022.9 1023.3 0.0
27/11:00am 8.5 6.4 6.6 88 0.9 W 7 11 4 6 1023.3 1023.6 0.0
27/10:30am 8.4 5.9 6.5 88 0.9 W 9 13 5 7 1023.3 1023.6 0.0
27/10:00am 8.4 6.4 6.9 90 0.7 W 7 9 4 5 1023.5 1023.8 0.0
27/09:30am 8.0 6.0 6.9 93 0.5 W 7 9 4 5 1023.6 1023.9 0.0
27/09:00am 7.4 5.3 6.8 96 0.3 W 7 11 4 6 1023.9 1024.2 0.2
27/08:30am 7.2 4.8 6.8 97 0.2 WSW 9 13 5 7 1024.0 1024.3 0.2
27/08:00am 7.1 4.6 6.7 97 0.2 W 9 11 5 6 1024.0 1024.3 0.2
27/07:30am 7.1 4.6 6.7 97 0.2 W 9 13 5 7 1023.7 1024.0 0.2
27/07:00am 7.0 5.1 6.6 97 0.2 W 6 9 3 5 1023.5 1023.8 0.2
27/06:30am 7.1 4.6 6.7 97 0.2 W 9 13 5 7 1023.5 1023.8 0.2
27/06:00am 7.1 4.2 6.5 96 0.3 W 11 13 6 7 1023.4 1023.7 0.2
27/05:30am 6.8 4.2 6.1 95 0.3 W 9 13 5 7 1023.4 1023.7 0.2
27/05:00am 7.0 4.8 6.1 94 0.4 W 7 13 4 7 1023.5 1023.8 0.2
27/04:30am 7.4 6.0 5.7 89 0.8 WNW 2 6 1 3 1023.6 1023.9 0.2
27/04:00am 8.4 5.8 3.1 69 2.3 NNW 6 6 3 3 1023.9 1024.2 0.2
27/03:30am 7.9 5.2 3.6 74 1.9 N 7 9 4 5 1024.1 1024.5 0.2
27/03:00am 8.0 5.6 4.2 77 1.7 NNW 6 7 3 4 1024.4 1024.8 0.2
27/02:30am 7.7 5.6 5.7 87 0.9 N 6 7 3 4 1024.7 1025.1 0.2
27/02:00am 7.6 5.3 5.6 87 0.9 N 7 11 4 6 1025.2 1025.6 0.2
27/01:30am 8.0 5.7 5.8 86 1.0 NNW 7 13 4 7 1025.6 1026.0 0.2
27/01:00am 8.2 4.8 6.0 86 1.0 N 13 20 7 11 1025.8 1026.2 0.2
27/12:30am 8.6 4.5 6.1 84 1.2 N 17 24 9 13 1025.9 1026.3 0.2
27/12:00am 9.0 3.2 6.1 82 1.3 N 26 37 14 20 1026.1 1026.5 0.2
 
Date/Time
EST
Temp
°C
App
Temp
°C
Dew
Point
Rel
Hum
%
Delta-T
°C
Wind Press
QNH
hPa
Press
MSL
hPa
Rain
since 9 am
mm
Dir
 
Spd
km/h
Gust
km/h
Spd
kts
Gust
kts
26/11:30pm 8.8 2.5 5.9 82 1.3 N 28 37 15 20 1026.2 1026.6 0.2
26/11:00pm 8.8 2.1 5.5 80 1.5 N 30 41 16 22 1026.4 1026.8 0.2
26/10:30pm 8.8 2.1 5.4 79 1.6 N 30 41 16 22 1026.7 1027.1 0.2
26/10:00pm 8.8 2.8 5.2 78 1.6 N 26 37 14 20 1027.0 1027.4 0.2
26/09:30pm 8.7 2.4 5.8 82 1.3 N 28 35 15 19 1027.2 1027.6 0.2
26/09:00pm 8.5 2.8 6.6 88 0.9 N 26 32 14 17 1027.1 1027.5 0.2
26/08:30pm 8.7 2.5 6.2 84 1.2 N 28 35 15 19 1027.1 1027.5 0.2
26/08:00pm 8.7 2.5 6.2 84 1.2 N 28 35 15 19 1027.1 1027.5 0.2
26/07:30pm 8.7 2.4 5.8 82 1.3 NNE 28 35 15 19 1027.1 1027.5 0.2
26/07:00pm 8.6 2.2 5.4 80 1.4 NNE 28 35 15 19 1027.1 1027.5 0.2
26/06:30pm 8.6 3.0 5.5 81 1.4 NNE 24 32 13 17 1027.1 1027.5 0.2
26/06:00pm 8.5 3.3 5.4 81 1.4 NNE 22 30 12 16 1027.2 1027.6 0.2
26/05:30pm 8.5 3.3 5.3 80 1.5 NNE 22 30 12 16 1027.3 1027.7 0.2
26/05:00pm 8.8 3.5 4.8 76 1.8 NNE 22 32 12 17 1027.3 1027.7 0.2
26/04:30pm 9.2 3.4 4.6 73 2.1 NNE 24 32 13 17 1027.3 1027.7 0.2
26/04:00pm 9.7 4.3 4.3 69 2.4 NNE 22 32 12 17 1027.4 1027.8 0.2
26/03:30pm 10.0 4.2 4.2 67 2.6 NNE 24 35 13 19 1027.6 1028.0 0.2
26/03:00pm 10.4 4.2 4.1 65 2.8 NNE 26 35 14 19 1027.7 1028.1 0.2
26/02:30pm 10.7 4.5 4.2 64 2.9 NNE 26 35 14 19 1027.9 1028.3 0.2
26/02:00pm 10.9 4.8 4.6 65 2.9 NNE 26 35 14 19 1028.1 1028.5 0.2
26/01:30pm 10.6 4.4 4.3 65 2.9 NNE 26 35 14 19 1028.5 1028.9 0.2
26/01:00pm 10.6 4.1 4.5 66 2.8 N 28 35 15 19 1028.8 1029.2 0.0
26/12:30pm 10.4 3.1 4.3 66 2.8 N 32 41 17 22 1029.2 1029.6 0.0
26/12:00pm 10.4 3.9 4.5 67 2.7 N 28 39 15 21 1029.5 1029.9 0.0
26/11:30am 10.2 2.7 4.6 68 2.5 N 33 43 18 23 1029.8 1030.2 0.0
26/11:00am 10.1 2.7 3.8 65 2.8 N 32 44 17 24 1030.0 1030.4 0.0
26/10:30am 10.2 3.6 4.1 66 2.7 N 28 39 15 21 1030.1 1030.5 0.0
26/10:00am 10.3 4.6 4.7 68 2.5 N 24 33 13 18 1030.2 1030.6 0.0
26/09:30am 9.5 2.8 3.9 68 2.5 N 28 37 15 20 1030.2 1030.6 0.0
26/09:00am 9.3 2.3 4.1 70 2.3 N 30 39 16 21 1030.2 1030.6 0.0
26/08:30am 8.8 1.7 3.6 70 2.3 N 30 37 16 20 1030.2 1030.6 0.0
26/08:00am 8.4 1.3 3.7 72 2.0 N 30 37 16 20 1030.2 1030.6 0.0
26/07:30am 7.9 1.9 3.6 74 1.9 N 24 33 13 18 1030.2 1030.6 0.0
26/07:00am 7.6 0.9 3.6 76 1.7 N 28 39 15 21 1029.9 1030.3 0.0
26/06:30am 7.4 0.3 3.5 76 1.7 N 30 39 16 21 1029.7 1030.1 0.0
26/06:00am 7.4 1.1 3.8 78 1.6 N 26 33 14 18 1029.6 1030.0 0.0
26/05:30am 7.4 1.1 3.6 77 1.6 N 26 35 14 19 1029.6 1030.0 0.0
26/05:00am 7.4 1.8 3.5 76 1.7 N 22 30 12 16 1029.7 1030.1 0.0
26/04:30am 7.4 2.8 3.5 76 1.7 N 17 24 9 13 1029.7 1030.1 0.0
26/04:00am 6.6 2.7 3.4 80 1.4 N 13 19 7 10 1029.6 1030.0 0.0
26/03:30am 6.5 2.9 3.1 79 1.4 NNW 11 17 6 9 1029.8 1030.2 0.0
26/03:00am 6.6 3.8 3.0 78 1.5 NW 7 11 4 6 1029.9 1030.3 0.0
26/02:30am 7.4 5.2 3.1 74 1.8 NNW 4 9 2 5 1030.2 1030.6 0.0
26/02:00am 7.1 4.5 3.0 75 1.7 NNW 6 7 3 4 1030.4 1030.8 0.0
26/01:30am 6.8 4.6 3.1 77 1.6 WNW 4 6 2 3 1030.6 1031.0 0.0
26/01:00am 6.8 2.8 3.1 77 1.6 N 13 20 7 11 1030.6 1031.0 0.0
26/12:30am 6.8 2.8 3.1 77 1.6 N 13 19 7 10 1030.6 1031.0 0.0
26/12:00am 7.3 3.4 3.4 76 1.7 N 13 20 7 11 1030.6 1031.0 0.0
 
Date/Time
EST
Temp
°C
App
Temp
°C
Dew
Point
Rel
Hum
%
Delta-T
°C
Wind Press
QNH
hPa
Press
MSL
hPa
Rain
since 9 am
mm
Dir
 
Spd
km/h
Gust
km/h
Spd
kts
Gust
kts
25/11:30pm 7.3 4.0 4.4 82 1.3 N 11 19 6 10 1030.7 1031.1 0.0
25/11:00pm 7.1 3.5 5.1 87 0.9 N 13 22 7 12 1030.6 1031.0 0.0
25/10:30pm 7.6 3.6 4.7 82 1.3 N 15 22 8 12 1030.7 1031.1 0.0
25/10:00pm 7.6 4.7 4.6 81 1.3 NNE 9 20 5 11 1030.6 1031.0 0.0
25/09:30pm 7.5 5.1 4.3 80 1.4 N 6 13 3 7 1030.5 1030.9 0.0
25/09:00pm 7.6 4.7 4.4 80 1.4 NNE 9 13 5 7 1030.4 1030.8 0.0
25/08:30pm 6.9 4.0 4.4 84 1.1 NNE 9 13 5 7 1030.1 1030.5 0.0
25/08:00pm 7.1 5.6 5.1 87 0.9 ENE 2 4 1 2 1029.9 1030.3 0.0
25/07:30pm 7.2 5.8 5.3 88 0.9 E 2 4 1 2 1029.8 1030.2 0.0
25/07:00pm 7.3 5.9 5.6 89 0.8 ESE 2 4 1 2 1029.6 1030.0 0.0
25/06:30pm 7.3 5.0 4.8 84 1.1 SSE 6 9 3 5 1029.5 1029.9 0.0
25/06:00pm 7.0 4.9 3.8 80 1.4 S 4 6 2 3 1029.1 1029.5 0.0
25/05:30pm 7.6 5.1 3.5 75 1.8 SW 6 9 3 5 1028.9 1029.3 0.0

Other Formats:

Comma delimited format used in spreadsheet applications
http://www.bom.gov.au/fwo/IDT60801/IDT60801.95986.axf

JavaScript Object Notation format (JSON) in row-major order
http://www.bom.gov.au/fwo/IDT60801/IDT60801.95986.json